createdAt,value
2022-10-04T00:01:31.038Z,100367.59
2022-10-04T00:06:32.721Z,100367.59
2022-10-04T00:11:37.290Z,100357.47
2022-10-04T00:16:40.844Z,100364.22
2022-10-04T00:21:52.288Z,100365.91
2022-10-04T00:27:25.310Z,100360.84
2022-10-04T00:32:28.272Z,100357.47
2022-10-04T00:38:12.857Z,100357.47
2022-10-04T00:43:26.166Z,100353.25
2022-10-04T00:48:31.597Z,100359.13
2022-10-04T00:53:39.508Z,100359.16
2022-10-04T00:59:08.724Z,100356.59
2022-10-04T01:04:26.756Z,100356.59
2022-10-04T01:09:30.508Z,100349.88
2022-10-04T01:14:53.774Z,100347.38
2022-10-04T01:19:56.170Z,100349.03
2022-10-04T01:24:57.845Z,100331.34
2022-10-04T01:30:01.082Z,100332.22
2022-10-04T01:35:03.783Z,100331.34
2022-10-04T01:40:09.069Z,100322.91
2022-10-04T01:45:19.420Z,100323.75
2022-10-04T01:50:30.090Z,100327.16
2022-10-04T01:55:37.489Z,100291.69
2022-10-04T02:00:46.348Z,100285.78
2022-10-04T02:05:52.753Z,100305.19
2022-10-04T02:10:55.932Z,100324.59
2022-10-04T02:16:00.276Z,100324.59
2022-10-04T02:21:06.010Z,100318.69
2022-10-04T02:26:09.494Z,100322.06
2022-10-04T02:31:30.257Z,100310.25
2022-10-04T02:36:33.288Z,100322.06
2022-10-04T02:42:01.630Z,100318.69
2022-10-04T02:47:14.330Z,100325.41
2022-10-04T02:52:42.250Z,100322.00
2022-10-04T02:57:44.873Z,100332.09
2022-10-04T03:03:11.309Z,100333.00
2022-10-04T03:08:14.442Z,100312.72
2022-10-04T03:13:18.540Z,100308.53
2022-10-04T03:18:21.140Z,100316.97
2022-10-04T03:23:22.869Z,100315.22
2022-10-04T03:28:25.159Z,100312.72
2022-10-04T03:33:27.596Z,100316.06
2022-10-04T03:38:32.449Z,100316.06
2022-10-04T03:43:40.666Z,100311.81
2022-10-04T03:48:52.208Z,100320.28
2022-10-04T03:53:59.805Z,100327.84
2022-10-04T03:59:06.617Z,100327.84
2022-10-04T04:04:17.708Z,100323.66
2022-10-04T04:09:29.126Z,100329.53
2022-10-04T04:14:30.890Z,100330.34
2022-10-04T04:19:33.611Z,100330.34
2022-10-04T04:24:36.468Z,100328.66
2022-10-04T04:29:53.318Z,100336.22
2022-10-04T04:35:08.598Z,100332.03
2022-10-04T04:40:21.859Z,100338.75
2022-10-04T04:45:26.676Z,100337.06
2022-10-04T04:50:40.053Z,100342.97
2022-10-04T04:56:03.712Z,100349.75
2022-10-04T05:01:15.952Z,100350.56
2022-10-04T05:06:29.127Z,100358.09
2022-10-04T05:11:39.406Z,100368.22
2022-10-04T05:16:51.200Z,100380.06
2022-10-04T05:21:55.661Z,100375.81
2022-10-04T05:27:04.280Z,100385.13
2022-10-04T05:32:31.161Z,100394.44
2022-10-04T05:37:35.876Z,100392.72
2022-10-04T05:42:45.343Z,100404.56
2022-10-04T05:47:51.410Z,100406.22
2022-10-04T05:53:05.552Z,100409.59
2022-10-04T05:58:25.514Z,100416.38
2022-10-04T06:03:42.501Z,100422.25
2022-10-04T06:08:59.542Z,100420.56
2022-10-04T06:14:07.477Z,100426.50
2022-10-04T06:19:44.588Z,100432.38
2022-10-04T06:25:01.440Z,100429.88
2022-10-04T06:30:16.099Z,100432.44
2022-10-04T06:35:45.739Z,100440.88
2022-10-04T06:41:00.202Z,100437.53
2022-10-04T06:46:26.856Z,100446.88
2022-10-04T06:52:22.793Z,100461.22
2022-10-04T06:57:46.106Z,100462.09
2022-10-04T07:03:10.660Z,100467.16
2022-10-04T07:08:31.628Z,100462.13
2022-10-04T07:13:45.611Z,100467.22
2022-10-04T07:19:09.779Z,100465.56
2022-10-04T07:24:18.765Z,100469.78
2022-10-04T07:29:26.351Z,100470.69
2022-10-04T07:34:31.510Z,100474.09
2022-10-04T07:39:46.143Z,100474.13
2022-10-04T07:45:25.846Z,100483.44
2022-10-04T07:50:45.959Z,100490.25
2022-10-04T07:56:00.358Z,100500.44
2022-10-04T08:01:06.310Z,100492.84
2022-10-04T08:06:35.723Z,100494.59
2022-10-04T08:12:09.106Z,100491.22
2022-10-04T08:17:26.445Z,100496.34
2022-10-04T08:22:57.420Z,100490.47
2022-10-04T08:28:27.021Z,100504.88
2022-10-04T08:34:06.196Z,100496.44
2022-10-04T08:39:39.833Z,100498.97
2022-10-04T08:45:03.196Z,100498.97
2022-10-04T08:50:44.594Z,100498.09
2022-10-04T08:55:55.400Z,100498.13
2022-10-04T09:01:26.343Z,100494.69
2022-10-04T09:06:51.054Z,100493.00
2022-10-04T09:12:28.149Z,100483.69
2022-10-04T09:17:42.008Z,100498.06
2022-10-04T09:23:31.920Z,100485.38
2022-10-04T09:28:57.026Z,100493.84
2022-10-04T09:34:23.507Z,100504.84
2022-10-04T09:39:53.116Z,100515.81
2022-10-04T09:45:27.616Z,100509.91
2022-10-04T09:50:35.634Z,100512.41
2022-10-04T09:56:00.588Z,100511.56
2022-10-04T10:01:21.052Z,100517.50
2022-10-04T10:06:50.117Z,100507.34
2022-10-04T10:12:36.623Z,100508.19
2022-10-04T10:17:59.912Z,100529.31
2022-10-04T10:23:39.661Z,100531.84
2022-10-04T10:29:23.397Z,100536.88
2022-10-04T10:34:53.279Z,100532.56
2022-10-04T10:40:13.846Z,100533.31
2022-10-04T10:45:34.176Z,100543.34
2022-10-04T10:51:03.626Z,100534.81
2022-10-04T10:56:30.064Z,100539.06
2022-10-04T11:02:01.594Z,100532.09
2022-10-04T11:07:16.556Z,100528.31
2022-10-04T11:13:05.669Z,100521.34
2022-10-04T11:18:26.693Z,100523.94
2022-10-04T11:23:46.486Z,100514.72
2022-10-04T11:29:03.745Z,100520.72
2022-10-04T11:34:24.833Z,100509.81
2022-10-04T11:39:58.782Z,100503.91
2022-10-04T11:45:00.593Z,100529.31
2022-10-04T11:50:40.961Z,100525.16
2022-10-04T11:56:04.412Z,100509.06
2022-10-04T12:01:32.427Z,100514.16
2022-10-04T12:06:47.873Z,100513.28
2022-10-04T12:12:37.573Z,100509.13
2022-10-04T12:18:11.700Z,100501.47
2022-10-04T12:23:29.744Z,100499.63
2022-10-04T12:29:04.140Z,100498.75
2022-10-04T12:34:15.071Z,100497.16
2022-10-04T12:39:34.699Z,100509.09
2022-10-04T12:44:57.559Z,100494.00
2022-10-04T12:50:08.846Z,100518.59
2022-10-04T12:55:19.497Z,100521.94
2022-10-04T13:00:23.872Z,100511.72
2022-10-04T13:05:44.515Z,100514.16
2022-10-04T13:11:07.633Z,100511.63
2022-10-04T13:21:36.761Z,100509.94
2022-10-04T13:26:56.138Z,100512.50
2022-10-04T13:32:02.118Z,100526.84
2022-10-04T13:37:22.643Z,100517.44
2022-10-04T13:42:42.842Z,100514.88
2022-10-04T13:48:12.751Z,100529.38
2022-10-04T13:53:58.945Z,100521.75
2022-10-04T13:59:10.234Z,100511.63
2022-10-04T14:04:52.673Z,100526.06
2022-10-04T14:10:12.470Z,100519.25
2022-10-04T14:15:43.354Z,100522.63
2022-10-04T14:21:06.787Z,100518.34
2022-10-04T14:26:43.298Z,100520.06
2022-10-04T14:32:14.922Z,100514.22
2022-10-04T14:37:23.550Z,100519.25
2022-10-04T14:42:49.228Z,100522.63
2022-10-04T14:48:19.771Z,100511.50
2022-10-04T14:53:32.789Z,100514.81
2022-10-04T14:59:18.044Z,100505.50
2022-10-04T15:04:36.764Z,100498.75
2022-10-04T15:10:04.066Z,100500.47
2022-10-04T15:15:13.094Z,100495.38
2022-10-04T15:20:20.920Z,100493.69
2022-10-04T15:25:41.432Z,100495.41
2022-10-04T15:31:20.621Z,100497.16
2022-10-04T15:36:38.174Z,100515.84
2022-10-04T15:42:07.381Z,100519.28
2022-10-04T15:47:21.981Z,100517.66
2022-10-04T15:52:47.420Z,100526.19
2022-10-04T15:58:04.542Z,100533.03
2022-10-04T16:03:28.384Z,100533.13
2022-10-04T16:08:30.083Z,100539.91
2022-10-04T16:13:39.667Z,100537.47
2022-10-04T16:19:15.955Z,100542.63
2022-10-04T16:24:20.559Z,100553.72
2022-10-04T16:30:25.429Z,100552.09
2022-10-04T16:35:33.531Z,100555.56
2022-10-04T16:40:57.405Z,100556.41
2022-10-04T16:46:16.339Z,100556.44
2022-10-04T16:51:27.222Z,100558.13
2022-10-04T16:56:54.163Z,100564.09
2022-10-04T17:02:18.903Z,100564.94
2022-10-04T17:07:58.831Z,100589.47
2022-10-04T17:13:23.438Z,100595.38
2022-10-04T17:18:36.733Z,100601.25
2022-10-04T17:24:11.115Z,100602.00
2022-10-04T17:29:15.853Z,100613.75
2022-10-04T17:34:23.651Z,100606.09
2022-10-04T17:39:28.372Z,100600.94
2022-10-04T17:44:58.434Z,100604.22
2022-10-04T17:50:32.451Z,100621.03
2022-10-04T17:55:47.687Z,100625.97
2022-10-04T18:01:21.448Z,100630.94
2022-10-04T18:06:39.714Z,100620.69
2022-10-04T18:11:47.337Z,100628.22
2022-10-04T18:16:54.823Z,100645.97
2022-10-04T18:22:09.503Z,100634.91
2022-10-04T18:27:18.671Z,100654.28
2022-10-04T18:32:26.331Z,100653.38
2022-10-04T18:37:41.521Z,100649.00
2022-10-04T18:42:52.945Z,100645.50
2022-10-04T18:47:56.537Z,100656.44
2022-10-04T18:53:15.205Z,100659.50
2022-10-04T18:59:00.492Z,100666.22
2022-10-04T19:04:14.735Z,100666.91
2022-10-04T19:09:44.998Z,100672.81
2022-10-04T19:14:53.781Z,100677.78
2022-10-04T19:20:20.305Z,100689.47
2022-10-04T19:26:29.834Z,100673.28
2022-10-04T19:31:38.998Z,100690.91
2022-10-04T19:37:10.791Z,100701.56
2022-10-04T19:42:19.969Z,100700.66
2022-10-04T19:47:26.603Z,100708.16
2022-10-04T19:52:39.038Z,100713.91
2022-10-04T19:57:42.238Z,100713.03
2022-10-04T20:02:48.502Z,100719.59
2022-10-04T20:08:06.301Z,100712.69
2022-10-04T20:13:12.251Z,100717.81
2022-10-04T20:18:32.764Z,100719.47
2022-10-04T20:23:37.825Z,100737.13
2022-10-04T20:28:42.598Z,100732.91
2022-10-04T20:33:48.706Z,100728.50
2022-10-04T20:39:01.853Z,100737.50
2022-10-04T20:44:06.683Z,100745.03
2022-10-04T20:49:17.248Z,100732.22
2022-10-04T20:54:20.875Z,100736.38
2022-10-04T20:59:24.097Z,100752.34
2022-10-04T21:04:50.099Z,100756.56
2022-10-04T21:09:56.511Z,100745.31
2022-10-04T21:15:16.885Z,100761.22
2022-10-04T21:20:41.744Z,100767.69
2022-10-04T21:25:43.415Z,100761.69
2022-10-04T21:30:45.404Z,100771.47
2022-10-04T21:35:50.980Z,100776.38
2022-10-04T21:40:52.769Z,100768.78
2022-10-04T21:45:55.058Z,100776.38
2022-10-04T21:50:56.757Z,100773.59
2022-10-04T21:55:58.367Z,100769.38
2022-10-04T22:01:00.315Z,100763.94
2022-10-04T22:06:02.039Z,100767.22
2022-10-04T22:11:03.960Z,100775.00
2022-10-04T22:16:06.400Z,100763.84
2022-10-04T22:21:08.246Z,100785.75
2022-10-04T22:26:16.319Z,100784.63
2022-10-04T22:31:20.863Z,100779.06
2022-10-04T22:36:39.293Z,100792.88
2022-10-04T22:41:58.462Z,100784.41
2022-10-04T22:47:02.353Z,100784.38
2022-10-04T22:52:13.161Z,100792.66
2022-10-04T22:57:17.422Z,100795.03
2022-10-04T23:02:29.712Z,100786.56
2022-10-04T23:07:36.032Z,100769.41
2022-10-04T23:12:40.879Z,100776.22
2022-10-04T23:17:43.166Z,100782.28
2022-10-04T23:22:50.518Z,100776.16
2022-10-04T23:27:52.518Z,100780.28
2022-10-04T23:32:58.069Z,100801.19
2022-10-04T23:38:03.739Z,100805.06
2022-10-04T23:43:05.894Z,100800.69
2022-10-04T23:48:11.257Z,100807.38
2022-10-04T23:53:23.098Z,100792.06
2022-10-04T23:58:32.492Z,100801.31
